Time;durP1;ratioP1;P1;durP2;ratioP2;P2;SDS_P1;SDS_P2;PMS_P1;PMS_P2;Temp;Humidity;BMP_temperature;BMP_pressure;BME280_temperature;BME280_humidity;BME280_pressure;Samples;Min_cycle;Max_cycle;Signal;HPM_P1;HPM_P2
2022/07/05 00:00:29;;;;;;;2.30;2.20;;;;;;;;;;5078620;28;24487;-47
2022/07/05 00:02:54;;;;;;;2.50;2.30;;;;;;;;;;5072146;28;24429;-47
2022/07/05 00:05:19;;;;;;;2.40;2.30;;;;;;;;;;5077679;28;24804;-47
2022/07/05 00:07:44;;;;;;;2.70;2.50;;;;;;;;;;5077196;28;24499;-47
2022/07/05 00:10:09;;;;;;;2.80;2.60;;;;;;;;;;5080470;28;24452;-47
2022/07/05 00:12:35;;;;;;;2.58;2.38;;;;;;;;;;5071689;28;25262;-47
2022/07/05 00:15:00;;;;;;;2.60;2.40;;;;;;;;;;5078815;28;24414;-46
2022/07/05 00:17:25;;;;;;;3.60;2.80;;;;;;;;;;5082031;28;25042;-47
2022/07/05 00:19:51;;;;;;;2.50;2.30;;;;;;;;;;5067416;28;24492;-47
2022/07/05 00:22:16;;;;;;;2.80;2.60;;;;;;;;;;5076204;28;24513;-46
2022/07/05 00:24:41;;;;;;;2.40;2.30;;;;;;;;;;5068820;28;24932;-47
2022/07/05 00:27:06;;;;;;;2.30;2.20;;;;;;;;;;5081119;28;24542;-47
2022/07/05 00:29:31;;;;;;;2.70;2.43;;;;;;;;;;5067667;28;24492;-47
2022/07/05 00:31:57;;;;;;;2.80;2.60;;;;;;;;;;5084656;28;24501;-46
2022/07/05 00:34:22;;;;;;;2.70;2.60;;;;;;;;;;5075926;28;24688;-46
2022/07/05 00:36:47;;;;;;;2.70;2.50;;;;;;;;;;5085563;28;24428;-46
2022/07/05 00:39:12;;;;;;;2.90;2.70;;;;;;;;;;5087139;28;24966;-46
2022/07/05 00:41:38;;;;;;;2.90;2.50;;;;;;;;;;5086332;28;24418;-47
2022/07/05 00:44:04;;;;;;;3.20;2.58;;;;;;;;;;5079572;28;24983;-46
2022/07/05 00:46:30;;;;;;;2.65;2.20;;;;;;;;;;5085721;28;24556;-46
2022/07/05 00:48:56;;;;;;;2.37;2.17;;;;;;;;;;5066010;28;24487;-47
2022/07/05 00:51:22;;;;;;;2.70;2.50;;;;;;;;;;5073929;28;24824;-47
2022/07/05 00:53:47;;;;;;;2.70;2.50;;;;;;;;;;5077731;28;24457;-46
2022/07/05 00:56:13;;;;;;;2.60;2.40;;;;;;;;;;5085825;28;24414;-46
2022/07/05 00:58:38;;;;;;;2.90;2.70;;;;;;;;;;5066456;28;24882;-46
2022/07/05 01:01:04;;;;;;;2.70;2.50;;;;;;;;;;5072966;28;24453;-47
2022/07/05 01:03:29;;;;;;;2.80;2.60;;;;;;;;;;5070587;28;24449;-47
2022/07/05 01:05:55;;;;;;;2.90;2.70;;;;;;;;;;5067514;28;25002;-47
2022/07/05 01:08:20;;;;;;;2.63;2.43;;;;;;;;;;5078590;28;24426;-47
2022/07/05 01:10:46;;;;;;;2.70;2.50;;;;;;;;;;5073292;28;24418;-47
2022/07/05 01:13:11;;;;;;;2.53;2.33;;;;;;;;;;5065854;28;24426;-47
2022/07/05 01:15:37;;;;;;;2.80;2.60;;;;;;;;;;5078197;28;24420;-47
2022/07/05 01:18:04;;;;;;;3.10;2.80;;;;;;;;;;5072593;28;24480;-46
2022/07/05 01:20:29;;;;;;;3.20;2.90;;;;;;;;;;5083167;28;24422;-46
2022/07/05 01:22:55;;;;;;;2.83;2.60;;;;;;;;;;5080554;28;24432;-46
2022/07/05 01:25:21;;;;;;;2.90;2.70;;;;;;;;;;5082124;28;26537;-46
2022/07/05 01:27:47;;;;;;;2.80;2.60;;;;;;;;;;5074755;28;24812;-46
2022/07/05 01:30:13;;;;;;;3.00;2.70;;;;;;;;;;5084341;28;24480;-47
2022/07/05 01:32:38;;;;;;;2.73;2.53;;;;;;;;;;5095561;28;24429;-46
2022/07/05 01:35:04;;;;;;;2.90;2.70;;;;;;;;;;5087697;28;24450;-47
2022/07/05 01:37:29;;;;;;;3.33;3.07;;;;;;;;;;5071710;28;24476;-47
2022/07/05 01:39:54;;;;;;;2.97;2.78;;;;;;;;;;5067754;28;25351;-47
2022/07/05 01:42:19;;;;;;;2.60;2.50;;;;;;;;;;5075981;28;24419;-46
2022/07/05 01:44:44;;;;;;;2.30;2.20;;;;;;;;;;5073413;28;25020;-47
2022/07/05 01:47:10;;;;;;;2.77;2.57;;;;;;;;;;5072810;28;24450;-47
2022/07/05 01:49:38;;;;;;;2.90;2.70;;;;;;;;;;5071427;28;24956;-47
2022/07/05 01:52:12;;;;;;;2.92;2.72;;;;;;;;;;5071185;28;24469;-47
2022/07/05 01:54:38;;;;;;;2.90;2.70;;;;;;;;;;5070759;28;24471;-46
2022/07/05 01:57:04;;;;;;;2.93;2.70;;;;;;;;;;5075598;28;24429;-47
2022/07/05 01:59:29;;;;;;;2.60;2.40;;;;;;;;;;5084594;28;24441;-47
2022/07/05 02:01:54;;;;;;;3.40;3.10;;;;;;;;;;5078455;28;24457;-47
2022/07/05 02:04:20;;;;;;;3.50;3.20;;;;;;;;;;5083057;28;24967;-47
2022/07/05 02:06:45;;;;;;;3.00;2.80;;;;;;;;;;5072241;28;24534;-47
2022/07/05 02:09:10;;;;;;;3.10;2.90;;;;;;;;;;5064653;28;24793;-47
2022/07/05 02:11:36;;;;;;;3.30;3.00;;;;;;;;;;5074796;28;24411;-46
2022/07/05 02:14:01;;;;;;;3.30;3.00;;;;;;;;;;5084504;28;25376;-46
2022/07/05 02:16:27;;;;;;;3.87;3.30;;;;;;;;;;5072424;28;25075;-46
2022/07/05 02:18:52;;;;;;;3.30;3.00;;;;;;;;;;5082494;28;24437;-46
2022/07/05 02:21:18;;;;;;;3.20;3.00;;;;;;;;;;5080508;28;24801;-47
2022/07/05 02:23:43;;;;;;;3.47;3.07;;;;;;;;;;5086826;28;24430;-47
2022/07/05 02:26:08;;;;;;;3.20;2.90;;;;;;;;;;5078037;28;24437;-46
2022/07/05 02:28:33;;;;;;;3.40;3.10;;;;;;;;;;5081435;28;24429;-46
2022/07/05 02:30:58;;;;;;;3.63;3.33;;;;;;;;;;5068441;28;24797;-46
2022/07/05 02:33:23;;;;;;;3.40;3.10;;;;;;;;;;5067630;28;24419;-46
2022/07/05 02:35:49;;;;;;;3.43;3.20;;;;;;;;;;5072692;28;24415;-46
2022/07/05 02:38:14;;;;;;;3.80;3.50;;;;;;;;;;5079806;28;24429;-46
2022/07/05 02:40:39;;;;;;;4.03;3.50;;;;;;;;;;5085682;28;24430;-46
2022/07/05 02:43:04;;;;;;;4.20;3.20;;;;;;;;;;5080660;28;24884;-46
2022/07/05 02:45:29;;;;;;;3.72;3.42;;;;;;;;;;5082427;28;24442;-47
2022/07/05 02:47:54;;;;;;;3.80;3.50;;;;;;;;;;5071509;28;24438;-46
2022/07/05 02:50:20;;;;;;;3.50;3.20;;;;;;;;;;5079927;28;24834;-46
2022/07/05 02:52:45;;;;;;;3.53;3.33;;;;;;;;;;5068393;28;24430;-46
2022/07/05 02:55:10;;;;;;;3.83;3.53;;;;;;;;;;5076857;28;25022;-46
2022/07/05 02:57:38;;;;;;;3.75;3.40;;;;;;;;;;5072701;28;24454;-46
2022/07/05 03:00:03;;;;;;;4.65;4.25;;;;;;;;;;5072028;28;24427;-46
2022/07/05 03:02:29;;;;;;;4.00;3.60;;;;;;;;;;5085222;28;24874;-46
2022/07/05 03:04:54;;;;;;;3.40;3.10;;;;;;;;;;5072947;28;25075;-46
2022/07/05 03:07:19;;;;;;;3.70;3.40;;;;;;;;;;5074306;28;24430;-46
2022/07/05 03:09:44;;;;;;;4.00;3.70;;;;;;;;;;5069396;28;24426;-46
2022/07/05 03:12:09;;;;;;;3.80;3.50;;;;;;;;;;5066996;28;24433;-46
2022/07/05 03:14:34;;;;;;;4.18;3.88;;;;;;;;;;5069790;28;24538;-47
2022/07/05 03:17:00;;;;;;;3.97;3.67;;;;;;;;;;5076603;28;24427;-47
2022/07/05 03:19:26;;;;;;;3.60;3.30;;;;;;;;;;5074528;28;24847;-47
2022/07/05 03:21:51;;;;;;;4.00;3.43;;;;;;;;;;5070480;28;24426;-46
2022/07/05 03:24:16;;;;;;;3.45;3.20;;;;;;;;;;5085258;28;24415;-45
2022/07/05 03:26:41;;;;;;;3.80;3.50;;;;;;;;;;5083743;28;24438;-47
2022/07/05 03:29:07;;;;;;;3.70;3.40;;;;;;;;;;5085434;28;24471;-46
2022/07/05 03:31:32;;;;;;;3.87;3.57;;;;;;;;;;5075501;28;24418;-46
2022/07/05 03:33:57;;;;;;;3.72;3.42;;;;;;;;;;5081784;28;24425;-46
2022/07/05 03:36:22;;;;;;;3.50;3.30;;;;;;;;;;5069837;28;24449;-47
2022/07/05 03:38:47;;;;;;;3.90;3.60;;;;;;;;;;5069804;28;24426;-46
2022/07/05 03:41:12;;;;;;;4.20;3.90;;;;;;;;;;5072896;28;24983;-46
2022/07/05 03:43:38;;;;;;;4.10;3.70;;;;;;;;;;5080949;28;24464;-47
2022/07/05 03:46:03;;;;;;;3.50;3.30;;;;;;;;;;5072149;28;24967;-47
2022/07/05 03:48:28;;;;;;;3.40;3.10;;;;;;;;;;5072466;28;25010;-46
2022/07/05 03:50:53;;;;;;;3.80;3.50;;;;;;;;;;5071496;28;24425;-46
2022/07/05 03:53:18;;;;;;;3.70;3.23;;;;;;;;;;5066658;28;24422;-47
2022/07/05 03:55:43;;;;;;;3.60;3.40;;;;;;;;;;5081615;28;25059;-46
2022/07/05 03:58:08;;;;;;;4.00;3.70;;;;;;;;;;5084841;28;24518;-46
2022/07/05 04:00:34;;;;;;;3.90;3.60;;;;;;;;;;5077882;28;24432;-46
2022/07/05 04:02:59;;;;;;;3.80;3.47;;;;;;;;;;5079820;28;24466;-47
2022/07/05 04:05:25;;;;;;;3.90;3.60;;;;;;;;;;5083542;28;24513;-46
2022/07/05 04:07:51;;;;;;;3.80;3.50;;;;;;;;;;5086863;28;24441;-46
2022/07/05 04:10:17;;;;;;;4.50;4.10;;;;;;;;;;5073712;28;24486;-47
2022/07/05 04:12:42;;;;;;;4.13;3.78;;;;;;;;;;5079111;28;25063;-46
2022/07/05 04:15:08;;;;;;;4.00;3.70;;;;;;;;;;5067009;28;24454;-46
2022/07/05 04:17:33;;;;;;;3.80;3.50;;;;;;;;;;5066165;28;24453;-45
2022/07/05 04:19:58;;;;;;;5.22;4.20;;;;;;;;;;5066557;28;24940;-45
2022/07/05 04:22:23;;;;;;;4.68;4.28;;;;;;;;;;5065403;28;24487;-47
2022/07/05 04:27:32;;;;;;;4.50;4.10;;;;;;;;;;5084109;28;25021;-46
2022/07/05 04:29:57;;;;;;;4.60;4.10;;;;;;;;;;5067910;28;24422;-46
2022/07/05 04:32:23;;;;;;;4.57;4.20;;;;;;;;;;5081045;28;25084;-47
2022/07/05 04:34:48;;;;;;;4.38;3.83;;;;;;;;;;5068215;28;24441;-47
2022/07/05 04:37:13;;;;;;;4.30;3.90;;;;;;;;;;5068049;28;24476;-47
2022/07/05 04:39:38;;;;;;;6.05;4.80;;;;;;;;;;5069760;28;24476;-48
2022/07/05 04:42:04;;;;;;;4.45;4.05;;;;;;;;;;5066484;28;25061;-47
2022/07/05 04:44:29;;;;;;;4.50;4.10;;;;;;;;;;5079290;28;24542;-46
2022/07/05 04:46:54;;;;;;;4.00;3.60;;;;;;;;;;5078767;28;24572;-47
2022/07/05 04:49:19;;;;;;;4.30;3.90;;;;;;;;;;5071657;28;24422;-48
2022/07/05 04:51:44;;;;;;;4.30;3.90;;;;;;;;;;5080801;28;25104;-47
2022/07/05 04:54:09;;;;;;;6.43;4.20;;;;;;;;;;5069771;28;24479;-47
2022/07/05 04:56:34;;;;;;;3.60;3.30;;;;;;;;;;5069304;28;25330;-47
2022/07/05 04:59:00;;;;;;;3.80;3.60;;;;;;;;;;5066144;28;24972;-47
2022/07/05 05:01:25;;;;;;;3.60;3.30;;;;;;;;;;5083418;28;24508;-47
2022/07/05 05:03:50;;;;;;;3.55;3.25;;;;;;;;;;5071132;28;25316;-47
2022/07/05 05:06:15;;;;;;;5.32;3.40;;;;;;;;;;5081156;28;24456;-46
2022/07/05 05:08:41;;;;;;;4.30;4.00;;;;;;;;;;5082631;28;24533;-47
2022/07/05 05:11:06;;;;;;;3.80;3.50;;;;;;;;;;5078660;28;24491;-47
2022/07/05 05:13:31;;;;;;;4.00;3.60;;;;;;;;;;5081812;28;24693;-45
2022/07/05 05:15:56;;;;;;;3.80;3.50;;;;;;;;;;5075575;28;24525;-45
2022/07/05 05:18:26;;;;;;;3.50;3.30;;;;;;;;;;5086006;28;24446;-46
2022/07/05 05:20:51;;;;;;;3.55;3.25;;;;;;;;;;5077810;28;25029;-45
2022/07/05 05:23:17;;;;;;;4.80;3.30;;;;;;;;;;5071592;28;24438;-45
2022/07/05 05:25:42;;;;;;;3.50;3.10;;;;;;;;;;5070613;28;24780;-45
2022/07/05 05:28:07;;;;;;;3.03;2.83;;;;;;;;;;5084844;28;24525;-46
2022/07/05 05:30:32;;;;;;;3.30;3.10;;;;;;;;;;5085521;28;24589;-46
2022/07/05 05:32:57;;;;;;;3.10;2.90;;;;;;;;;;5085447;28;24751;-45
2022/07/05 05:35:23;;;;;;;3.40;3.10;;;;;;;;;;5083739;28;24417;-45
2022/07/05 05:37:49;;;;;;;3.00;2.80;;;;;;;;;;5066732;28;24409;-45
2022/07/05 05:40:15;;;;;;;3.38;3.00;;;;;;;;;;5064901;28;24753;-45
2022/07/05 05:42:40;;;;;;;3.33;3.03;;;;;;;;;;5064759;28;25003;-46
2022/07/05 05:45:05;;;;;;;3.10;2.87;;;;;;;;;;5065849;28;24982;-45
2022/07/05 05:47:30;;;;;;;3.95;2.90;;;;;;;;;;5070291;28;24434;-45
2022/07/05 05:49:56;;;;;;;3.10;2.80;;;;;;;;;;5069040;28;24483;-45
2022/07/05 05:52:21;;;;;;;2.90;2.70;;;;;;;;;;5073343;28;24437;-46
2022/07/05 05:54:46;;;;;;;2.90;2.70;;;;;;;;;;5081399;28;24559;-45
2022/07/05 05:57:11;;;;;;;2.70;2.50;;;;;;;;;;5084596;28;24434;-45
2022/07/05 05:59:36;;;;;;;2.60;2.40;;;;;;;;;;5075321;28;24434;-45
2022/07/05 06:02:01;;;;;;;2.58;2.38;;;;;;;;;;5085710;28;24587;-46
2022/07/05 06:04:26;;;;;;;2.60;2.40;;;;;;;;;;5087344;28;24433;-46
2022/07/05 06:06:52;;;;;;;2.13;2.03;;;;;;;;;;5078814;28;24449;-46
2022/07/05 06:09:17;;;;;;;2.53;2.33;;;;;;;;;;5068237;28;24441;-46
2022/07/05 06:11:42;;;;;;;2.55;2.30;;;;;;;;;;5077407;28;24421;-46
2022/07/05 06:14:07;;;;;;;2.10;2.00;;;;;;;;;;5083151;28;25890;-45
2022/07/05 06:16:32;;;;;;;4.00;2.70;;;;;;;;;;5070195;28;24414;-45
2022/07/05 06:18:57;;;;;;;3.17;2.38;;;;;;;;;;5073438;28;24463;-45
2022/07/05 06:21:23;;;;;;;2.40;2.30;;;;;;;;;;5076482;28;24765;-46
2022/07/05 06:23:48;;;;;;;2.60;2.40;;;;;;;;;;5080004;28;24425;-45
2022/07/05 06:26:13;;;;;;;3.15;2.33;;;;;;;;;;5064714;28;24419;-45
2022/07/05 06:28:38;;;;;;;4.45;2.75;;;;;;;;;;5070836;28;24542;-45
2022/07/05 06:31:03;;;;;;;2.90;2.70;;;;;;;;;;5070246;28;24461;-45
2022/07/05 06:33:28;;;;;;;3.95;2.70;;;;;;;;;;5067506;28;24387;-47
2022/07/05 06:35:53;;;;;;;2.60;2.40;;;;;;;;;;5067204;28;24476;-47
2022/07/05 06:38:19;;;;;;;2.83;2.63;;;;;;;;;;5067934;28;24745;-47
2022/07/05 06:40:44;;;;;;;2.80;2.60;;;;;;;;;;5067955;28;24513;-46
2022/07/05 06:43:10;;;;;;;2.80;2.60;;;;;;;;;;5067371;28;24409;-45
2022/07/05 06:45:35;;;;;;;2.80;2.60;;;;;;;;;;5066517;28;25015;-45
2022/07/05 06:48:02;;;;;;;3.10;2.80;;;;;;;;;;5087664;28;24422;-46
2022/07/05 06:50:28;;;;;;;3.30;2.50;;;;;;;;;;5070172;28;24454;-46
2022/07/05 06:52:53;;;;;;;3.20;2.70;;;;;;;;;;5067704;28;24498;-46
2022/07/05 06:55:19;;;;;;;2.70;2.50;;;;;;;;;;5066672;28;24518;-46
2022/07/05 06:57:45;;;;;;;2.70;2.50;;;;;;;;;;5084152;28;24429;-46
2022/07/05 07:00:12;;;;;;;3.08;2.42;;;;;;;;;;5086122;28;24502;-46
2022/07/05 07:02:37;;;;;;;3.30;3.00;;;;;;;;;;5087412;28;24414;-46
2022/07/05 07:05:02;;;;;;;3.20;2.50;;;;;;;;;;5087822;28;24405;-46
2022/07/05 07:10:13;;;;;;;3.20;3.00;;;;;;;;;;5087596;28;24393;-46
2022/07/05 07:12:39;;;;;;;2.65;2.45;;;;;;;;;;5087535;28;24792;-46
2022/07/05 07:15:04;;;;;;;2.90;2.60;;;;;;;;;;5087763;28;24390;-47
2022/07/05 07:17:29;;;;;;;4.93;2.80;;;;;;;;;;5085846;28;25035;-47
2022/07/05 07:19:54;;;;;;;3.22;2.42;;;;;;;;;;5088074;28;24394;-46
2022/07/05 07:22:19;;;;;;;2.90;2.70;;;;;;;;;;5087478;28;24421;-47
2022/07/05 07:24:45;;;;;;;4.07;2.60;;;;;;;;;;5087313;28;24394;-47
2022/07/05 07:27:10;;;;;;;2.38;2.28;;;;;;;;;;5085010;28;25070;-46
2022/07/05 07:29:36;;;;;;;2.70;2.50;;;;;;;;;;5087327;28;24916;-46
2022/07/05 07:32:02;;;;;;;2.45;2.13;;;;;;;;;;5088017;28;24447;-46
2022/07/05 07:34:27;;;;;;;2.85;2.28;;;;;;;;;;5086956;28;24383;-46
2022/07/05 07:36:53;;;;;;;2.20;2.00;;;;;;;;;;5087517;28;25002;-46
2022/07/05 07:39:18;;;;;;;2.30;2.20;;;;;;;;;;5069261;28;24505;-47
2022/07/05 07:41:43;;;;;;;2.30;2.10;;;;;;;;;;5066830;28;24832;-46
2022/07/05 07:44:08;;;;;;;2.50;2.40;;;;;;;;;;5066684;28;24437;-47
2022/07/05 07:46:34;;;;;;;2.92;2.63;;;;;;;;;;5066957;28;24449;-47
2022/07/05 07:48:59;;;;;;;2.70;2.50;;;;;;;;;;5066879;28;24427;-47
2022/07/05 07:51:24;;;;;;;2.53;2.33;;;;;;;;;;5066660;28;24407;-47
2022/07/05 07:53:49;;;;;;;3.37;2.60;;;;;;;;;;5066518;28;24387;-47
2022/07/05 07:56:14;;;;;;;2.90;2.70;;;;;;;;;;5066664;28;24402;-47
2022/07/05 07:58:40;;;;;;;2.97;2.40;;;;;;;;;;5066595;28;24422;-46
2022/07/05 08:01:10;;;;;;;2.37;2.20;;;;;;;;;;5066670;28;25215;-47
2022/07/05 08:03:35;;;;;;;2.30;2.10;;;;;;;;;;5066331;28;24469;-47
2022/07/05 08:06:01;;;;;;;2.92;2.50;;;;;;;;;;5071383;28;24449;-46
2022/07/05 08:08:26;;;;;;;2.30;2.10;;;;;;;;;;5085794;28;24456;-46
2022/07/05 08:10:51;;;;;;;2.40;2.30;;;;;;;;;;5086638;28;24540;-46
2022/07/05 08:13:16;;;;;;;2.10;1.90;;;;;;;;;;5086489;28;24848;-47
2022/07/05 08:15:41;;;;;;;2.30;2.10;;;;;;;;;;5086449;28;24389;-47
2022/07/05 08:23:35;;;;;;;3.28;2.22;;;;;;;;;;5065982;28;24394;-47
2022/07/05 08:26:00;;;;;;;2.00;1.90;;;;;;;;;;5066210;28;24697;-48
2022/07/05 08:28:26;;;;;;;2.30;1.90;;;;;;;;;;5083828;28;24453;-46
2022/07/05 08:30:51;;;;;;;1.70;1.60;;;;;;;;;;5086644;28;24398;-46
2022/07/05 08:33:16;;;;;;;2.27;1.90;;;;;;;;;;5086136;28;24397;-46
2022/07/05 08:35:41;;;;;;;1.90;1.80;;;;;;;;;;5085929;28;24378;-47
2022/07/05 08:38:06;;;;;;;2.30;1.87;;;;;;;;;;5072473;28;24431;-47
2022/07/05 08:40:33;;;;;;;2.65;1.70;;;;;;;;;;5066056;28;24525;-46
2022/07/05 08:42:58;;;;;;;1.70;1.60;;;;;;;;;;5066210;28;24398;-45
2022/07/05 08:45:25;;;;;;;1.90;1.70;;;;;;;;;;5065631;28;24403;-46
2022/07/05 08:47:51;;;;;;;2.17;1.80;;;;;;;;;;5066182;28;24442;-47
2022/07/05 08:50:16;;;;;;;2.33;1.60;;;;;;;;;;5065817;28;24456;-47
2022/07/05 08:52:42;;;;;;;2.00;1.60;;;;;;;;;;5065908;28;24871;-46
2022/07/05 08:55:08;;;;;;;1.92;1.77;;;;;;;;;;5066004;28;24409;-47
2022/07/05 08:57:33;;;;;;;1.60;1.50;;;;;;;;;;5066387;28;24868;-47
2022/07/05 08:59:58;;;;;;;1.60;1.50;;;;;;;;;;5082962;28;24420;-47
2022/07/05 09:02:23;;;;;;;2.50;1.80;;;;;;;;;;5086214;28;24418;-47
2022/07/05 09:04:49;;;;;;;1.80;1.70;;;;;;;;;;5070302;28;24427;-47
2022/07/05 09:07:16;;;;;;;1.70;1.60;;;;;;;;;;5065509;28;24418;-46
2022/07/05 09:09:43;;;;;;;1.70;1.60;;;;;;;;;;5078436;28;24441;-46
2022/07/05 09:12:08;;;;;;;1.60;1.50;;;;;;;;;;5086092;28;24403;-47
2022/07/05 09:14:33;;;;;;;1.80;1.70;;;;;;;;;;5069766;28;24549;-47
2022/07/05 09:16:58;;;;;;;2.03;1.80;;;;;;;;;;5067507;28;24391;-47
2022/07/05 09:19:23;;;;;;;2.42;1.80;;;;;;;;;;5071751;28;25093;-47
2022/07/05 09:21:59;;;;;;;2.10;1.83;;;;;;;;;;5069611;28;24929;-47
2022/07/05 09:24:25;;;;;;;2.15;1.80;;;;;;;;;;5067989;28;24481;-47
2022/07/05 09:26:50;;;;;;;1.70;1.60;;;;;;;;;;5068476;28;24830;-48
2022/07/05 09:29:16;;;;;;;1.80;1.70;;;;;;;;;;5081299;28;24475;-47
2022/07/05 09:31:42;;;;;;;1.70;1.60;;;;;;;;;;5090013;28;24947;-47
2022/07/05 09:34:09;;;;;;;1.60;1.50;;;;;;;;;;5073611;28;24516;-47
2022/07/05 09:36:53;;;;;;;2.17;1.90;;;;;;;;;;5069025;28;24540;-47
2022/07/05 09:39:33;;;;;;;1.80;1.70;;;;;;;;;;5068578;28;25080;-49
2022/07/05 09:42:28;;;;;;;2.00;1.90;;;;;;;;;;5069270;28;24403;-47
2022/07/05 09:44:53;;;;;;;1.40;1.40;;;;;;;;;;5059791;28;24562;-47
2022/07/05 09:47:20;;;;;;;2.00;1.90;;;;;;;;;;5068102;28;24520;-47
2022/07/05 09:49:52;;;;;;;1.88;1.77;;;;;;;;;;5069580;28;24480;-47
2022/07/05 09:52:30;;;;;;;1.67;1.58;;;;;;;;;;5068320;28;24469;-47
2022/07/05 09:55:03;;;;;;;1.70;1.60;;;;;;;;;;5068771;28;24975;-47
2022/07/05 09:57:28;;;;;;;2.00;1.80;;;;;;;;;;5067616;28;24442;-47
2022/07/05 10:00:19;;;;;;;1.80;1.70;;;;;;;;;;5072954;28;24433;-47
2022/07/05 10:02:44;;;;;;;2.00;1.90;;;;;;;;;;5076436;28;24512;-46
2022/07/05 10:05:09;;;;;;;1.80;1.70;;;;;;;;;;5068990;28;24932;-48
2022/07/05 10:07:35;;;;;;;1.70;1.60;;;;;;;;;;5067961;28;24435;-47
2022/07/05 10:10:01;;;;;;;1.50;1.40;;;;;;;;;;5069484;28;24457;-46
2022/07/05 10:12:27;;;;;;;2.08;1.88;;;;;;;;;;5080512;28;24422;-46
2022/07/05 10:14:52;;;;;;;1.42;1.33;;;;;;;;;;5068878;28;24389;-46
2022/07/05 10:17:18;;;;;;;1.53;1.40;;;;;;;;;;5083711;28;24408;-46
2022/07/05 10:19:45;;;;;;;1.70;1.53;;;;;;;;;;5087056;28;24914;-46
2022/07/05 10:22:11;;;;;;;1.80;1.48;;;;;;;;;;5088993;28;24801;-45
2022/07/05 10:24:36;;;;;;;2.20;1.40;;;;;;;;;;5088470;28;24991;-45
2022/07/05 10:27:05;;;;;;;2.78;1.70;;;;;;;;;;5088901;28;24422;-46
2022/07/05 10:29:30;;;;;;;1.55;1.45;;;;;;;;;;5085303;28;24433;-46
2022/07/05 10:31:55;;;;;;;1.50;1.40;;;;;;;;;;5087176;28;24418;-46
2022/07/05 10:34:21;;;;;;;1.80;1.70;;;;;;;;;;5088369;28;24456;-46
2022/07/05 10:36:46;;;;;;;1.73;1.63;;;;;;;;;;5088891;28;24410;-46
2022/07/05 10:39:13;;;;;;;1.67;1.50;;;;;;;;;;5086951;28;24406;-50
2022/07/05 10:41:40;;;;;;;1.60;1.50;;;;;;;;;;5077451;28;24847;-46
2022/07/05 10:44:05;;;;;;;2.20;1.37;;;;;;;;;;5089055;28;24394;-46
2022/07/05 10:46:36;;;;;;;1.60;1.50;;;;;;;;;;5088708;28;24765;-46
2022/07/05 10:49:09;;;;;;;1.70;1.60;;;;;;;;;;5088797;28;24425;-46
2022/07/05 10:51:35;;;;;;;1.95;1.77;;;;;;;;;;5071885;28;24423;-46
2022/07/05 10:54:01;;;;;;;1.80;1.60;;;;;;;;;;5078180;28;24421;-46
2022/07/05 10:56:26;;;;;;;1.77;1.67;;;;;;;;;;5086079;28;24422;-47
2022/07/05 10:59:04;;;;;;;1.80;1.70;;;;;;;;;;5088387;28;24401;-46
2022/07/05 11:01:33;;;;;;;2.00;1.65;;;;;;;;;;5088997;28;24408;-46
2022/07/05 11:04:01;;;;;;;1.57;1.47;;;;;;;;;;5087914;28;24547;-46
2022/07/05 11:06:41;;;;;;;1.50;1.40;;;;;;;;;;5073759;28;24508;-46
2022/07/05 11:09:09;;;;;;;1.70;1.60;;;;;;;;;;5068047;28;24749;-46
2022/07/05 11:11:35;;;;;;;1.63;1.52;;;;;;;;;;5068519;28;24391;-46
2022/07/05 11:14:01;;;;;;;1.70;1.60;;;;;;;;;;5067426;28;24409;-47
2022/07/05 11:16:27;;;;;;;1.40;1.20;;;;;;;;;;5075331;28;25286;-47
2022/07/05 11:19:03;;;;;;;1.88;1.60;;;;;;;;;;5067559;28;24448;-46
2022/07/05 11:21:28;;;;;;;1.80;1.60;;;;;;;;;;5067562;28;24472;-46
2022/07/05 11:24:13;;;;;;;1.70;1.60;;;;;;;;;;5067540;28;24488;-46
2022/07/05 11:26:39;;;;;;;1.75;1.65;;;;;;;;;;5066468;28;24527;-46
2022/07/05 11:29:04;;;;;;;1.97;1.70;;;;;;;;;;5067518;28;24821;-46
2022/07/05 11:31:39;;;;;;;2.30;1.50;;;;;;;;;;5067142;28;24406;-46
2022/07/05 11:34:14;;;;;;;1.60;1.40;;;;;;;;;;5067406;28;24399;-46
2022/07/05 11:36:40;;;;;;;1.50;1.40;;;;;;;;;;5068590;28;26128;-46
2022/07/05 11:39:06;;;;;;;1.40;1.30;;;;;;;;;;5085418;28;25319;-46
2022/07/05 11:41:32;;;;;;;2.60;1.63;;;;;;;;;;5083046;28;24429;-46
2022/07/05 11:43:58;;;;;;;1.70;1.60;;;;;;;;;;5087286;28;24401;-47
2022/07/05 11:46:23;;;;;;;1.60;1.50;;;;;;;;;;5087258;28;24965;-46
2022/07/05 11:48:48;;;;;;;1.80;1.70;;;;;;;;;;5087078;28;24401;-46
2022/07/05 11:51:14;;;;;;;1.90;1.80;;;;;;;;;;5083674;28;24488;-46
2022/07/05 11:53:39;;;;;;;1.83;1.60;;;;;;;;;;5086806;28;24920;-46
2022/07/05 11:56:05;;;;;;;1.50;1.40;;;;;;;;;;5087038;28;24452;-46
2022/07/05 11:58:31;;;;;;;2.40;1.70;;;;;;;;;;5087099;28;24803;-46
2022/07/05 12:00:56;;;;;;;1.60;1.50;;;;;;;;;;5085592;28;24398;-46
2022/07/05 12:03:21;;;;;;;1.60;1.50;;;;;;;;;;5066797;28;24773;-46
2022/07/05 12:05:47;;;;;;;2.30;1.80;;;;;;;;;;5064376;28;24486;-46
2022/07/05 12:08:19;;;;;;;2.27;1.60;;;;;;;;;;5066779;28;24414;-46
2022/07/05 12:13:31;;;;;;;1.60;1.35;;;;;;;;;;5070807;28;24425;-46
2022/07/05 12:16:00;;;;;;;1.70;1.60;;;;;;;;;;5085772;28;24904;-46
2022/07/05 12:18:25;;;;;;;1.67;1.58;;;;;;;;;;5086546;28;24400;-46
2022/07/05 12:20:50;;;;;;;1.80;1.30;;;;;;;;;;5084101;28;24473;-46
2022/07/05 12:23:15;;;;;;;1.80;1.60;;;;;;;;;;5066401;28;24406;-47
2022/07/05 12:25:41;;;;;;;4.20;1.70;;;;;;;;;;5065951;28;24464;-47
2022/07/05 12:28:09;;;;;;;1.73;1.63;;;;;;;;;;5066255;28;24446;-46
2022/07/05 12:30:34;;;;;;;1.60;1.50;;;;;;;;;;5066266;28;24391;-46
2022/07/05 12:33:06;;;;;;;1.73;1.43;;;;;;;;;;5065673;28;24543;-47
2022/07/05 12:35:32;;;;;;;3.47;1.70;;;;;;;;;;5064023;28;24403;-47
2022/07/05 12:38:03;;;;;;;1.60;1.40;;;;;;;;;;5066182;28;24415;-47
2022/07/05 12:40:28;;;;;;;1.83;1.73;;;;;;;;;;5065602;28;24391;-47
2022/07/05 12:43:07;;;;;;;2.47;1.50;;;;;;;;;;5066235;28;24456;-46
2022/07/05 12:45:33;;;;;;;2.00;1.80;;;;;;;;;;5065557;28;24464;-46
2022/07/05 12:47:59;;;;;;;2.00;1.80;;;;;;;;;;5065730;28;24476;-47
2022/07/05 12:50:28;;;;;;;2.10;1.60;;;;;;;;;;5065753;28;24925;-47
2022/07/05 12:58:27;;;;;;;2.20;1.70;;;;;;;;;;5065832;28;24398;-47
2022/07/05 13:00:52;;;;;;;1.50;1.40;;;;;;;;;;5065714;28;24425;-46
2022/07/05 13:03:17;;;;;;;3.00;1.67;;;;;;;;;;5066177;28;24427;-46
2022/07/05 13:05:42;;;;;;;2.05;1.60;;;;;;;;;;5063739;28;24422;-46
2022/07/05 13:08:07;;;;;;;1.67;1.57;;;;;;;;;;5065654;28;24935;-46
2022/07/05 13:10:32;;;;;;;2.00;1.80;;;;;;;;;;5065225;28;24994;-47
2022/07/05 13:12:58;;;;;;;1.50;1.40;;;;;;;;;;5065415;28;24480;-47
2022/07/05 13:15:23;;;;;;;1.67;1.58;;;;;;;;;;5065578;28;24427;-47
2022/07/05 13:17:48;;;;;;;1.60;1.50;;;;;;;;;;5065548;28;24406;-47
2022/07/05 13:20:19;;;;;;;1.60;1.50;;;;;;;;;;5066014;28;24980;-46
2022/07/05 13:22:45;;;;;;;1.70;1.60;;;;;;;;;;5065319;28;24483;-46
2022/07/05 13:25:11;;;;;;;2.17;1.83;;;;;;;;;;5079880;28;24433;-47
2022/07/05 13:27:37;;;;;;;2.00;1.60;;;;;;;;;;5085663;28;24422;-46
2022/07/05 13:30:03;;;;;;;2.20;1.80;;;;;;;;;;5085870;28;24884;-47
2022/07/05 13:32:28;;;;;;;1.90;1.80;;;;;;;;;;5085675;28;24405;-47
2022/07/05 13:34:53;;;;;;;1.70;1.60;;;;;;;;;;5067961;28;24484;-46
2022/07/05 13:37:18;;;;;;;2.30;1.50;;;;;;;;;;5065816;28;24410;-46
2022/07/05 13:39:43;;;;;;;2.20;1.80;;;;;;;;;;5065754;28;24753;-47
2022/07/05 13:42:08;;;;;;;1.65;1.55;;;;;;;;;;5064942;28;24399;-47
2022/07/05 13:44:34;;;;;;;1.90;1.80;;;;;;;;;;5064845;28;24434;-46
2022/07/05 13:46:59;;;;;;;2.40;1.90;;;;;;;;;;5064798;28;24470;-46
2022/07/05 13:49:24;;;;;;;1.80;1.70;;;;;;;;;;5065524;28;24395;-46
2022/07/05 13:51:50;;;;;;;2.55;1.70;;;;;;;;;;5065391;28;24390;-46
2022/07/05 13:54:15;;;;;;;1.70;1.60;;;;;;;;;;5065239;28;24430;-45
2022/07/05 13:56:41;;;;;;;2.10;2.00;;;;;;;;;;5064879;28;24929;-46
2022/07/05 13:59:06;;;;;;;2.30;1.50;;;;;;;;;;5065336;28;24403;-45
2022/07/05 14:01:31;;;;;;;1.60;1.50;;;;;;;;;;5065426;28;24394;-47
2022/07/05 14:03:58;;;;;;;2.23;1.67;;;;;;;;;;5064913;28;24401;-46
2022/07/05 14:06:24;;;;;;;1.80;1.70;;;;;;;;;;5066082;28;24775;-47
2022/07/05 14:08:49;;;;;;;1.93;1.70;;;;;;;;;;5068681;28;24395;-46
2022/07/05 14:11:14;;;;;;;1.98;1.80;;;;;;;;;;5075385;28;24425;-46
2022/07/05 14:13:39;;;;;;;1.90;1.80;;;;;;;;;;5076665;28;24421;-47
2022/07/05 14:16:05;;;;;;;2.20;1.57;;;;;;;;;;5088061;28;24958;-46
2022/07/05 14:18:30;;;;;;;1.90;1.80;;;;;;;;;;5089177;28;24386;-46
2022/07/05 14:20:55;;;;;;;1.80;1.70;;;;;;;;;;5088814;28;24474;-46
2022/07/05 14:23:20;;;;;;;1.98;1.63;;;;;;;;;;5087284;28;24448;-46
2022/07/05 14:25:45;;;;;;;1.90;1.80;;;;;;;;;;5068520;28;24444;-46
2022/07/05 14:28:11;;;;;;;2.70;1.70;;;;;;;;;;5068899;28;24435;-48
2022/07/05 14:30:38;;;;;;;1.93;1.73;;;;;;;;;;5087791;28;24405;-46
2022/07/05 14:33:03;;;;;;;1.70;1.60;;;;;;;;;;5081898;28;24395;-47
2022/07/05 14:35:28;;;;;;;1.70;1.60;;;;;;;;;;5071603;28;24406;-45
2022/07/05 14:37:54;;;;;;;2.10;1.70;;;;;;;;;;5068858;28;24969;-45
2022/07/05 14:40:19;;;;;;;1.70;1.60;;;;;;;;;;5069511;28;24422;-47
2022/07/05 14:42:44;;;;;;;1.70;1.60;;;;;;;;;;5069168;28;24436;-46
2022/07/05 14:45:10;;;;;;;1.88;1.77;;;;;;;;;;5075639;28;24863;-46
2022/07/05 14:47:35;;;;;;;2.00;1.77;;;;;;;;;;5071639;28;24479;-47
2022/07/05 14:50:00;;;;;;;2.20;1.90;;;;;;;;;;5069425;28;24394;-46
2022/07/05 14:52:25;;;;;;;1.70;1.60;;;;;;;;;;5088360;28;24402;-46
2022/07/05 14:54:50;;;;;;;1.80;1.70;;;;;;;;;;5088219;28;24980;-46